TimeWET,TemperatureF,Dew PointF,Humidity,Sea Level PressureIn,VisibilityMPH,Wind Direction,Wind SpeedMPH,Gust SpeedMPH,PrecipitationIn,Events,Conditions,WindDirDegrees,DateUTC
6:00 AM,64,46,42,,9,South,4.6,,,,Partly Cloudy,180,2012-10-05 06:00:00
6:00 AM,64.4,46.4,52,30.18,-9999.0,South,4.6,-,N/A,,Clear,180,2012-10-05 06:00:00
7:00 AM,64.4,46.4,52,30.18,-9999.0,North,4.6,-,N/A,,Clear,360,2012-10-05 07:00:00
8:00 AM,68.0,48.2,49,30.21,-9999.0,South,2.3,-,N/A,,Clear,180,2012-10-05 08:00:00
9:00 AM,72,47,29,,9,SE,4.6,,,,Partly Cloudy,140,2012-10-05 09:00:00
9:00 AM,71.6,46.4,41,30.21,-9999.0,SE,4.6,-,N/A,,Clear,140,2012-10-05 09:00:00
10:00 AM,78.8,46.4,32,30.21,6.2,SSW,4.6,-,N/A,,Scattered Clouds,200,2012-10-05 10:00:00
11:00 AM,80.6,46.4,30,30.21,6.2,WSW,4.6,-,N/A,,Scattered Clouds,240,2012-10-05 11:00:00
12:00 PM,83,45,17,,9,WSW,4.6,,,,Scattered Clouds,240,2012-10-05 12:00:00
12:00 PM,82.4,44.6,26,30.18,6.2,WSW,4.6,-,N/A,,Scattered Clouds,240,2012-10-05 12:00:00
1:00 PM,82.4,44.6,26,30.18,6.2,WSW,4.6,-,N/A,,Scattered Clouds,240,2012-10-05 13:00:00
2:00 PM,86.0,42.8,22,30.15,6.2,West,9.2,-,N/A,,Scattered Clouds,280,2012-10-05 14:00:00
3:00 PM,85,42,13,,12,SSW,9.2,,,,Mostly Cloudy,200,2012-10-05 15:00:00
3:00 PM,86.0,42.8,22,30.12,6.2,SSW,9.2,-,N/A,,Partly Cloudy,200,2012-10-05 15:00:00
4:00 PM,86.0,42.8,22,30.12,3.7,North,27.6,44.9,N/A,Rain-Thunderstorm,Thunderstorms and Rain,360,2012-10-05 16:00:00
5:00 PM,71.6,51.8,50,30.21,3.7,NE,25.3,36.8,N/A,Thunderstorm,Thunderstorm,40,2012-10-05 17:00:00
6:00 PM,66,55,59,,6,ENE,13.8,,,Rain-Thunderstorm,Thunderstorms and Rain,60,2012-10-05 18:00:00
6:00 PM,66.2,55.4,68,30.27,6.2,ENE,13.8,-,N/A,Rain-Thunderstorm,Light Thunderstorms and Rain,60,2012-10-05 18:00:00
9:00 PM,64,59,78,,6,SW,4.6,,,Thunderstorm,Light Thunderstorm,220,2012-10-05 21:00:00
9:00 PM,64.4,41.0,42,30.33,6.2,SW,6.9,-,N/A,,Partly Cloudy,220,2012-10-05 21:00:00